createdAt,value
2018-07-11T00:00:03.393Z,90.40
2018-07-11T00:02:44.717Z,90.40
2018-07-11T00:05:27.088Z,90.40
2018-07-11T00:08:08.614Z,90.40
2018-07-11T00:10:50.836Z,90.50
2018-07-11T00:13:32.288Z,90.40
2018-07-11T00:16:14.399Z,90.60
2018-07-11T00:18:56.434Z,90.60
2018-07-11T00:21:37.935Z,90.50
2018-07-11T00:24:19.396Z,90.30
2018-07-11T00:27:01.672Z,90.40
2018-07-11T00:29:43.072Z,90.30
2018-07-11T00:32:24.856Z,90.30
2018-07-11T00:35:06.288Z,90.30
2018-07-11T00:37:47.782Z,90.30
2018-07-11T00:40:29.425Z,90.30
2018-07-11T00:43:10.801Z,90.30
2018-07-11T00:45:53.674Z,90.30
2018-07-11T00:48:35.962Z,90.40
2018-07-11T00:51:17.504Z,90.40
2018-07-11T00:53:58.878Z,90.30
2018-07-11T00:56:41.580Z,90.40
2018-07-11T00:59:26.204Z,90.50
2018-07-11T01:02:08.075Z,90.40
2018-07-11T01:04:49.457Z,90.40
2018-07-11T01:07:31.676Z,90.40
2018-07-11T01:10:13.030Z,90.50
2018-07-11T01:12:54.794Z,90.50
2018-07-11T01:15:36.169Z,90.70
2018-07-11T01:18:18.288Z,90.60
2018-07-11T01:20:59.727Z,90.60
2018-07-11T01:23:41.298Z,90.60
2018-07-11T01:26:27.704Z,90.60
2018-07-11T01:29:09.837Z,90.70
2018-07-11T01:31:51.778Z,90.70
2018-07-11T01:34:33.258Z,90.70
2018-07-11T01:37:14.734Z,90.70
2018-07-11T01:39:57.689Z,90.70
2018-07-11T01:42:40.178Z,90.80
2018-07-11T01:45:21.885Z,90.60
2018-07-11T01:48:03.346Z,90.60
2018-07-11T01:50:45.560Z,90.80
2018-07-11T01:53:28.049Z,90.70
2018-07-11T01:56:09.627Z,90.80
2018-07-11T01:58:51.896Z,90.70
2018-07-11T02:01:37.147Z,90.80
2018-07-11T02:04:18.760Z,90.80
2018-07-11T02:07:06.670Z,90.70
2018-07-11T02:09:48.070Z,90.80
2018-07-11T02:12:29.422Z,90.80
2018-07-11T02:15:11.926Z,90.80
2018-07-11T02:17:55.834Z,90.80
2018-07-11T02:20:37.176Z,90.80
2018-07-11T02:23:19.532Z,90.90
2018-07-11T02:26:01.939Z,91.00
2018-07-11T02:28:43.394Z,91.00
2018-07-11T02:31:25.620Z,91.00
2018-07-11T02:34:08.157Z,91.00
2018-07-11T02:36:49.676Z,91.10
2018-07-11T02:39:35.105Z,91.10
2018-07-11T02:42:16.573Z,91.00
2018-07-11T02:44:57.989Z,91.10
2018-07-11T02:47:42.382Z,91.00
2018-07-11T02:50:23.876Z,90.80
2018-07-11T02:53:05.568Z,90.60
2018-07-11T02:55:47.079Z,90.70
2018-07-11T02:58:28.703Z,90.70
2018-07-11T03:01:10.389Z,90.70
2018-07-11T03:03:52.353Z,90.80
2018-07-11T03:06:35.899Z,91.00
2018-07-11T03:09:17.457Z,90.70
2018-07-11T03:11:58.804Z,90.60
2018-07-11T03:14:45.637Z,90.50
2018-07-11T03:17:27.194Z,90.70
2018-07-11T03:20:08.677Z,90.60
2018-07-11T03:22:51.117Z,90.80
2018-07-11T03:25:32.497Z,90.80
2018-07-11T03:28:13.840Z,90.90
2018-07-11T03:30:55.982Z,90.80
2018-07-11T03:33:37.509Z,90.90
2018-07-11T03:36:18.809Z,90.90
2018-07-11T03:39:00.839Z,90.80
2018-07-11T03:41:42.195Z,90.90
2018-07-11T03:44:23.695Z,90.80
2018-07-11T03:47:05.226Z,90.70
2018-07-11T03:49:46.523Z,91.00
2018-07-11T03:52:29.190Z,91.00
2018-07-11T03:55:10.568Z,91.00
2018-07-11T03:57:53.746Z,91.00
2018-07-11T04:00:35.566Z,90.90
2018-07-11T04:03:17.189Z,90.80
2018-07-11T04:05:58.669Z,90.80
2018-07-11T04:08:40.028Z,90.70
2018-07-11T04:11:22.685Z,90.70
2018-07-11T04:14:03.974Z,90.60
2018-07-11T04:16:45.312Z,90.40
2018-07-11T04:19:27.138Z,90.40
2018-07-11T04:22:08.385Z,90.50
2018-07-11T04:24:49.753Z,90.30
2018-07-11T04:30:12.437Z,90.30
2018-07-11T04:32:55.043Z,90.20
2018-07-11T04:35:36.237Z,90.30
2018-07-11T04:38:17.514Z,90.30
2018-07-11T04:40:58.970Z,90.40
2018-07-11T04:43:40.452Z,90.30
2018-07-11T04:46:23.853Z,90.30
2018-07-11T04:49:05.646Z,90.20
2018-07-11T04:51:47.402Z,90.20
2018-07-11T04:54:29.061Z,90.20
2018-07-11T04:57:10.492Z,90.20
2018-07-11T04:59:54.745Z,90.10
2018-07-11T05:02:36.157Z,90.10
2018-07-11T05:05:17.642Z,90.20
2018-07-11T05:07:59.131Z,90.00
2018-07-11T05:10:40.467Z,90.00
2018-07-11T05:13:23.736Z,89.30
2018-07-11T05:16:05.192Z,89.50
2018-07-11T05:18:47.650Z,89.10
2018-07-11T05:21:28.976Z,88.70
2018-07-11T05:24:10.199Z,88.40
2018-07-11T05:26:52.650Z,88.10
2018-07-11T05:29:34.182Z,88.00
2018-07-11T05:32:15.477Z,87.90
2018-07-11T05:34:56.805Z,87.80
2018-07-11T05:37:38.213Z,87.90
2018-07-11T05:40:19.609Z,87.80
2018-07-11T05:43:00.965Z,87.50
2018-07-11T05:45:42.306Z,87.60
2018-07-11T05:48:25.410Z,88.00
2018-07-11T05:51:06.664Z,87.60
2018-07-11T05:53:48.028Z,88.10
2018-07-11T05:56:29.462Z,87.10
2018-07-11T05:59:10.792Z,86.90
2018-07-11T06:01:53.874Z,86.50
2018-07-11T06:04:35.054Z,86.40
2018-07-11T06:07:16.396Z,86.70
2018-07-11T06:09:57.753Z,87.00
2018-07-11T06:12:39.163Z,86.40
2018-07-11T06:15:21.060Z,86.40
2018-07-11T06:18:02.409Z,85.40
2018-07-11T06:20:43.780Z,86.00
2018-07-11T06:23:26.161Z,86.00
2018-07-11T06:26:08.011Z,85.70
2018-07-11T06:28:49.513Z,85.40
2018-07-11T06:31:31.187Z,84.80
2018-07-11T06:34:12.477Z,84.30
2018-07-11T06:36:55.021Z,84.30
2018-07-11T06:39:36.359Z,84.30
2018-07-11T06:42:17.678Z,84.30
2018-07-11T06:45:00.878Z,84.30
2018-07-11T06:47:42.553Z,84.40
2018-07-11T06:50:24.680Z,84.40
2018-07-11T06:53:05.870Z,84.50
2018-07-11T06:55:47.322Z,84.50
2018-07-11T06:58:28.788Z,84.60
2018-07-11T07:01:10.678Z,84.60
2018-07-11T07:03:52.632Z,84.80
2018-07-11T07:06:34.726Z,84.80
2018-07-11T07:09:16.152Z,84.30
2018-07-11T07:11:58.110Z,83.20
2018-07-11T07:14:39.469Z,84.20
2018-07-11T07:17:21.912Z,84.00
2018-07-11T07:20:03.360Z,83.80
2018-07-11T07:22:44.788Z,83.90
2018-07-11T07:25:27.579Z,83.60
2018-07-11T07:28:08.888Z,83.30
2018-07-11T07:30:51.196Z,83.40
2018-07-11T07:33:33.701Z,82.80
2018-07-11T07:36:15.260Z,83.40
2018-07-11T07:38:56.562Z,83.20
2018-07-11T07:41:37.914Z,82.90
2018-07-11T07:44:19.241Z,82.50
2018-07-11T07:47:01.913Z,81.90
2018-07-11T07:49:43.168Z,82.80
2018-07-11T07:52:25.253Z,82.80
2018-07-11T07:55:06.577Z,82.90
2018-07-11T07:57:48.037Z,81.70
2018-07-11T08:00:29.377Z,79.90
2018-07-11T08:03:10.706Z,79.70
2018-07-11T08:05:53.640Z,79.60
2018-07-11T08:08:35.012Z,80.80
2018-07-11T08:11:16.192Z,79.50
2018-07-11T08:13:57.489Z,78.20
2018-07-11T08:16:38.796Z,78.00
2018-07-11T08:19:20.878Z,77.80
2018-07-11T08:22:19.059Z,79.10
2018-07-11T08:25:17.369Z,79.30
2018-07-11T08:28:15.260Z,79.50
2018-07-11T08:31:23.712Z,79.70
2018-07-11T08:34:24.596Z,79.20
2018-07-11T08:37:29.868Z,79.30
2018-07-11T08:41:32.590Z,79.50
2018-07-11T08:45:41.370Z,79.60
2018-07-11T08:48:48.306Z,79.80
2018-07-11T08:51:57.077Z,79.80
2018-07-11T08:54:58.144Z,79.60
2018-07-11T09:00:00.765Z,79.80
2018-07-11T09:07:07.824Z,80.20
2018-07-11T09:14:16.668Z,80.30
2018-07-11T09:19:31.796Z,81.00
2018-07-11T09:24:41.303Z,82.10
2018-07-11T09:27:24.683Z,83.40
2018-07-11T09:30:06.167Z,85.20
2018-07-11T09:32:47.521Z,84.60
2018-07-11T09:35:28.868Z,85.30
2018-07-11T09:38:10.405Z,85.30
2018-07-11T09:40:54.667Z,85.30
2018-07-11T09:43:35.907Z,85.40
2018-07-11T09:46:17.435Z,84.10
2018-07-11T09:48:58.898Z,85.30
2018-07-11T09:51:40.405Z,85.30
2018-07-11T09:54:22.613Z,85.30
2018-07-11T09:57:03.991Z,85.20
2018-07-11T09:59:45.334Z,85.10
2018-07-11T10:02:26.973Z,85.10
2018-07-11T10:05:08.485Z,85.20
2018-07-11T10:07:51.026Z,85.20
2018-07-11T10:10:32.434Z,85.30
2018-07-11T10:13:13.969Z,85.30
2018-07-11T10:15:55.883Z,85.20
2018-07-11T10:18:37.237Z,85.20
2018-07-11T10:21:18.644Z,85.20
2018-07-11T10:24:00.716Z,85.20
2018-07-11T10:26:42.824Z,85.20
2018-07-11T10:29:24.598Z,85.20
2018-07-11T10:32:06.144Z,85.10
2018-07-11T10:34:47.480Z,85.10
2018-07-11T10:37:28.890Z,85.00
2018-07-11T10:40:10.253Z,84.90
2018-07-11T10:42:52.357Z,84.90
2018-07-11T10:45:33.744Z,84.90
2018-07-11T10:48:15.089Z,85.90
2018-07-11T10:50:56.695Z,85.80
2018-07-11T10:53:38.148Z,86.80
2018-07-11T10:56:19.623Z,86.70
2018-07-11T10:59:01.097Z,85.70
2018-07-11T11:01:42.436Z,85.80
2018-07-11T11:04:24.505Z,85.00
2018-07-11T11:07:05.888Z,84.90
2018-07-11T11:09:47.276Z,85.50
2018-07-11T11:12:28.489Z,86.30
2018-07-11T11:15:10.224Z,85.40
2018-07-11T11:17:52.222Z,86.40
2018-07-11T11:20:33.460Z,86.40
2018-07-11T11:23:15.043Z,86.00
2018-07-11T11:25:56.614Z,86.30
2018-07-11T11:28:37.948Z,85.90
2018-07-11T11:31:19.284Z,86.10
2018-07-11T11:34:00.721Z,86.00
2018-07-11T11:36:42.199Z,86.70
2018-07-11T11:39:24.677Z,87.00
2018-07-11T11:42:06.316Z,86.90
2018-07-11T11:44:47.674Z,86.90
2018-07-11T11:47:29.239Z,86.60
2018-07-11T11:50:10.504Z,87.00
2018-07-11T11:53:23.673Z,87.40
2018-07-11T11:56:05.152Z,88.20
2018-07-11T11:58:46.534Z,88.80
2018-07-11T12:01:27.898Z,89.80
2018-07-11T12:04:09.285Z,89.70
2018-07-11T12:06:51.678Z,89.20
2018-07-11T12:09:34.474Z,89.10
2018-07-11T12:12:15.813Z,89.60
2018-07-11T12:14:57.185Z,89.90
2018-07-11T12:17:38.772Z,90.10
2018-07-11T12:20:20.964Z,90.20
2018-07-11T12:23:02.415Z,90.50
2018-07-11T12:26:22.523Z,90.50
2018-07-11T12:29:03.937Z,90.30
2018-07-11T12:31:45.325Z,88.40
2018-07-11T12:34:26.686Z,89.00
2018-07-11T12:37:08.029Z,89.40
2018-07-11T12:39:51.028Z,89.40
2018-07-11T12:42:33.350Z,87.20
2018-07-11T12:45:14.766Z,87.10
2018-07-11T12:48:01.837Z,86.50
2018-07-11T12:50:43.749Z,86.80
2018-07-11T12:53:26.098Z,87.00
2018-07-11T12:56:07.573Z,84.90
2018-07-11T12:58:48.829Z,85.00
2018-07-11T13:01:31.765Z,85.00
2018-07-11T13:04:13.111Z,84.90
2018-07-11T13:06:56.373Z,85.70
2018-07-11T13:09:38.456Z,86.70
2018-07-11T13:12:20.809Z,84.80
2018-07-11T13:15:02.152Z,84.80
2018-07-11T13:17:43.597Z,84.80
2018-07-11T13:20:25.245Z,84.60
2018-07-11T13:23:07.095Z,84.60
2018-07-11T13:25:48.594Z,84.70
2018-07-11T13:28:30.303Z,83.50
2018-07-11T13:31:11.733Z,84.60
2018-07-11T13:33:53.741Z,84.70
2018-07-11T13:36:35.086Z,84.70
2018-07-11T13:39:20.781Z,84.70
2018-07-11T13:42:02.170Z,83.90
2018-07-11T13:44:43.490Z,84.70
2018-07-11T13:47:27.535Z,84.60
2018-07-11T13:52:50.913Z,86.10
2018-07-11T13:55:32.750Z,86.50
2018-07-11T13:58:14.301Z,86.00
2018-07-11T14:00:56.914Z,86.70
2018-07-11T14:03:38.280Z,87.10
2018-07-11T14:06:22.641Z,87.50
2018-07-11T14:09:05.980Z,87.60
2018-07-11T14:11:47.425Z,87.80
2018-07-11T14:14:29.801Z,87.80
2018-07-11T14:17:11.220Z,88.10
2018-07-11T14:19:53.665Z,87.90
2018-07-11T14:22:35.206Z,88.30
2018-07-11T14:25:18.079Z,87.70
2018-07-11T14:28:01.180Z,87.90
2018-07-11T14:30:43.620Z,87.60
2018-07-11T14:33:30.677Z,88.80
2018-07-11T14:36:12.011Z,88.40
2018-07-11T14:38:55.656Z,88.00
2018-07-11T14:41:39.603Z,87.60
2018-07-11T14:44:21.631Z,87.40
2018-07-11T14:47:09.460Z,87.30
2018-07-11T14:49:57.049Z,87.90
2018-07-11T14:52:44.257Z,88.20
2018-07-11T14:55:26.530Z,89.20
2018-07-11T14:58:12.828Z,87.90
2018-07-11T15:00:55.183Z,87.10
2018-07-11T15:03:36.564Z,88.00
2018-07-11T15:06:18.926Z,87.10
2018-07-11T15:09:00.624Z,89.20
2018-07-11T15:11:42.109Z,90.10
2018-07-11T15:14:25.512Z,90.20
2018-07-11T15:17:06.957Z,90.40
2018-07-11T15:19:49.377Z,90.00
2018-07-11T15:22:31.012Z,89.20
2018-07-11T15:25:13.791Z,90.10
2018-07-11T15:27:56.814Z,88.90
2018-07-11T15:30:42.866Z,88.60
2018-07-11T15:33:27.225Z,89.40
2018-07-11T15:36:08.680Z,89.70
2018-07-11T15:38:51.869Z,89.10
2018-07-11T15:41:33.770Z,88.80
2018-07-11T15:44:17.402Z,88.40
2018-07-11T15:46:59.813Z,88.50
2018-07-11T15:49:43.926Z,89.50
2018-07-11T15:52:26.905Z,87.20
2018-07-11T15:55:08.972Z,87.80
2018-07-11T15:57:58.851Z,87.90
2018-07-11T16:00:41.871Z,88.50
2018-07-11T16:06:08.869Z,88.90
2018-07-11T16:08:54.988Z,88.90
2018-07-11T16:11:39.418Z,88.80
2018-07-11T16:14:27.331Z,89.20
2018-07-11T16:17:08.902Z,89.20
2018-07-11T16:19:54.815Z,89.40
2018-07-11T16:22:37.220Z,89.60
2018-07-11T16:25:21.869Z,89.60
2018-07-11T16:28:04.074Z,89.60
2018-07-11T16:30:45.526Z,89.40
2018-07-11T16:33:28.134Z,89.20
2018-07-11T16:36:09.600Z,89.20
2018-07-11T16:38:54.801Z,89.60
2018-07-11T16:41:39.512Z,89.60
2018-07-11T16:44:22.517Z,89.80
2018-07-11T16:47:08.405Z,90.00
2018-07-11T16:49:51.709Z,90.00
2018-07-11T16:52:33.033Z,90.00
2018-07-11T16:55:15.659Z,90.10
2018-07-11T16:57:58.330Z,90.00
2018-07-11T17:00:41.196Z,90.20
2018-07-11T17:06:10.461Z,90.30
2018-07-11T17:08:53.019Z,90.30
2018-07-11T17:11:35.549Z,90.30
2018-07-11T17:14:18.716Z,90.30
2018-07-11T17:17:02.921Z,90.40
2018-07-11T17:20:00.677Z,90.40
2018-07-11T17:23:05.054Z,90.40
2018-07-11T17:25:47.148Z,90.50
2018-07-11T17:28:31.788Z,90.40
2018-07-11T17:31:17.220Z,90.50
2018-07-11T17:34:00.062Z,90.40
2018-07-11T17:36:41.786Z,90.50
2018-07-11T17:39:24.570Z,90.50
2018-07-11T17:42:06.981Z,90.60
2018-07-11T17:44:58.470Z,90.60
2018-07-11T17:49:57.997Z,90.60
2018-07-11T17:52:55.717Z,90.60
2018-07-11T17:55:45.604Z,90.80
2018-07-11T17:58:40.934Z,91.00
2018-07-11T18:01:38.730Z,91.00
2018-07-11T18:04:53.267Z,91.10
2018-07-11T18:07:46.305Z,91.00
2018-07-11T18:10:44.426Z,91.00
2018-07-11T18:13:42.347Z,91.10
2018-07-11T18:16:33.050Z,91.30
2018-07-11T18:19:38.060Z,91.50
2018-07-11T18:22:33.312Z,91.60
2018-07-11T18:25:29.995Z,91.80
2018-07-11T18:28:25.739Z,92.00
2018-07-11T18:33:27.549Z,92.10
2018-07-11T18:36:23.769Z,92.30
2018-07-11T18:39:29.933Z,92.50
2018-07-11T18:42:57.836Z,93.00
2018-07-11T18:46:14.742Z,92.80
2018-07-11T18:53:15.984Z,92.80
2018-07-11T18:56:12.798Z,92.90
2018-07-11T18:59:07.333Z,93.10
2018-07-11T19:02:49.177Z,93.00
2018-07-11T19:06:50.497Z,93.00
2018-07-11T19:09:56.924Z,93.10
2018-07-11T19:12:55.873Z,93.20
2018-07-11T19:15:46.834Z,93.00
2018-07-11T19:18:42.415Z,93.00
2018-07-11T19:24:11.580Z,93.20
2018-07-11T19:29:07.010Z,93.30
2018-07-11T19:32:10.480Z,93.40
2018-07-11T19:37:09.752Z,93.40
2018-07-11T19:40:14.781Z,93.60
2018-07-11T19:43:17.661Z,93.70
2018-07-11T19:46:14.824Z,93.70
2018-07-11T20:01:55.761Z,93.70
2018-07-11T20:04:39.187Z,93.80
2018-07-11T20:07:22.889Z,94.20
2018-07-11T20:10:04.674Z,94.20
2018-07-11T20:12:46.988Z,94.10
2018-07-11T20:15:28.337Z,93.80
2018-07-11T20:18:10.663Z,93.50
2018-07-11T20:20:53.030Z,93.40
2018-07-11T20:23:35.441Z,93.30
2018-07-11T20:26:17.834Z,93.20
2018-07-11T20:29:00.124Z,93.20
2018-07-11T20:31:50.363Z,93.20
2018-07-11T20:37:14.177Z,92.80
2018-07-11T20:39:56.399Z,93.00
2018-07-11T20:42:38.133Z,93.10
2018-07-11T20:45:19.583Z,92.90
2018-07-11T20:48:04.503Z,92.70
2018-07-11T20:50:46.257Z,92.70
2018-07-11T20:53:30.132Z,92.70
2018-07-11T20:56:11.576Z,92.60
2018-07-11T20:59:11.613Z,92.60
2018-07-11T21:02:10.777Z,92.40
2018-07-11T21:06:10.748Z,92.30
2018-07-11T21:11:23.429Z,92.40
2018-07-11T21:14:35.489Z,92.10
2018-07-11T21:17:53.005Z,92.10
2018-07-11T21:20:37.968Z,92.10
2018-07-11T21:23:20.373Z,91.70
2018-07-11T21:26:02.407Z,91.60
2018-07-11T21:28:43.818Z,91.50
2018-07-11T21:31:26.223Z,91.20
2018-07-11T21:34:08.644Z,91.00
2018-07-11T21:36:50.125Z,90.70
2018-07-11T21:39:33.777Z,90.90
2018-07-11T21:42:15.577Z,91.20
2018-07-11T21:44:57.417Z,91.30
2018-07-11T21:47:38.974Z,91.30
2018-07-11T21:50:20.407Z,91.50
2018-07-11T21:53:02.297Z,91.30
2018-07-11T21:55:44.254Z,90.90
2018-07-11T21:58:28.155Z,91.10
2018-07-11T22:01:11.069Z,91.30
2018-07-11T22:03:53.359Z,91.40
2018-07-11T22:06:35.650Z,91.30
2018-07-11T22:09:17.289Z,91.30
2018-07-11T22:12:04.538Z,91.20
2018-07-11T22:14:46.129Z,91.10
2018-07-11T22:18:42.492Z,90.50
2018-07-11T22:21:22.387Z,90.10
2018-07-11T22:24:02.042Z,89.50
2018-07-11T22:26:43.664Z,89.60
2018-07-11T22:29:24.461Z,89.50
2018-07-11T22:32:04.099Z,89.50
2018-07-11T22:34:43.826Z,89.50
2018-07-11T22:37:23.822Z,89.30
2018-07-11T22:40:03.800Z,89.80
2018-07-11T22:42:43.718Z,90.00
2018-07-11T22:45:23.633Z,90.00
2018-07-11T22:48:03.319Z,90.20
2018-07-11T22:50:42.848Z,90.30
2018-07-11T22:53:23.447Z,90.40
2018-07-11T22:56:03.197Z,90.40
2018-07-11T22:58:42.799Z,90.40
2018-07-11T23:01:22.399Z,90.60
2018-07-11T23:04:01.862Z,90.80
2018-07-11T23:06:41.454Z,90.90
2018-07-11T23:09:22.381Z,90.90
2018-07-11T23:12:16.561Z,90.90
2018-07-11T23:14:56.535Z,91.00
2018-07-11T23:17:36.119Z,90.90
2018-07-11T23:20:15.589Z,90.80
2018-07-11T23:22:55.274Z,91.00
2018-07-11T23:25:34.738Z,91.10
2018-07-11T23:28:14.317Z,91.30
2018-07-11T23:30:54.019Z,91.40
2018-07-11T23:33:33.597Z,91.50
2018-07-11T23:36:13.207Z,91.40
2018-07-11T23:38:53.803Z,91.20
2018-07-11T23:41:33.435Z,91.00
2018-07-11T23:44:13.075Z,91.00
2018-07-11T23:46:53.657Z,91.00
2018-07-11T23:49:33.249Z,91.00
2018-07-11T23:52:12.866Z,91.10
2018-07-11T23:54:52.366Z,91.20
2018-07-11T23:57:32.002Z,91.30
